sensor_id;sensor_type;location;lat;lon;timestamp;temperature;humidity
11744;DHT22;5929;51.906;7.674;2022-07-12T00:01:57;15.00;99.90
11744;DHT22;5929;51.906;7.674;2022-07-12T00:04:24;15.00;99.90
11744;DHT22;5929;51.906;7.674;2022-07-12T00:06:52;15.00;99.90
11744;DHT22;5929;51.906;7.674;2022-07-12T00:09:19;14.90;99.90
11744;DHT22;5929;51.906;7.674;2022-07-12T00:11:46;14.90;99.90
11744;DHT22;5929;51.906;7.674;2022-07-12T00:14:13;14.90;99.90
11744;DHT22;5929;51.906;7.674;2022-07-12T00:16:40;14.80;99.90
11744;DHT22;5929;51.906;7.674;2022-07-12T00:19:07;14.80;99.90
11744;DHT22;5929;51.906;7.674;2022-07-12T00:21:34;14.80;99.90
11744;DHT22;5929;51.906;7.674;2022-07-12T00:24:03;14.80;99.90
11744;DHT22;5929;51.906;7.674;2022-07-12T00:26:29;14.70;99.90
11744;DHT22;5929;51.906;7.674;2022-07-12T00:28:56;14.70;99.90
11744;DHT22;5929;51.906;7.674;2022-07-12T00:31:25;14.60;99.90
11744;DHT22;5929;51.906;7.674;2022-07-12T00:33:52;14.60;99.90
11744;DHT22;5929;51.906;7.674;2022-07-12T00:36:19;14.60;99.90
11744;DHT22;5929;51.906;7.674;2022-07-12T00:38:47;14.60;99.90
11744;DHT22;5929;51.906;7.674;2022-07-12T00:41:15;14.50;99.90
11744;DHT22;5929;51.906;7.674;2022-07-12T00:43:42;14.50;99.90
11744;DHT22;5929;51.906;7.674;2022-07-12T00:46:09;14.50;99.90
11744;DHT22;5929;51.906;7.674;2022-07-12T00:48:36;14.40;99.90
11744;DHT22;5929;51.906;7.674;2022-07-12T00:51:03;14.40;99.90
11744;DHT22;5929;51.906;7.674;2022-07-12T00:53:30;14.40;99.90
11744;DHT22;5929;51.906;7.674;2022-07-12T00:55:58;14.30;99.90
11744;DHT22;5929;51.906;7.674;2022-07-12T00:58:27;14.30;99.90
11744;DHT22;5929;51.906;7.674;2022-07-12T01:00:55;14.30;99.90
11744;DHT22;5929;51.906;7.674;2022-07-12T01:03:22;14.20;99.90
11744;DHT22;5929;51.906;7.674;2022-07-12T01:05:49;14.20;99.90
11744;DHT22;5929;51.906;7.674;2022-07-12T01:08:16;14.20;99.90
11744;DHT22;5929;51.906;7.674;2022-07-12T01:10:44;14.20;99.90
11744;DHT22;5929;51.906;7.674;2022-07-12T01:13:11;14.20;99.90
11744;DHT22;5929;51.906;7.674;2022-07-12T01:15:40;14.20;99.90
11744;DHT22;5929;51.906;7.674;2022-07-12T01:18:10;14.20;99.90
11744;DHT22;5929;51.906;7.674;2022-07-12T01:20:38;14.10;99.90
11744;DHT22;5929;51.906;7.674;2022-07-12T01:23:06;14.00;99.90
11744;DHT22;5929;51.906;7.674;2022-07-12T01:25:34;14.00;99.90
11744;DHT22;5929;51.906;7.674;2022-07-12T01:28:02;14.00;99.90
11744;DHT22;5929;51.906;7.674;2022-07-12T01:30:29;14.00;99.90
11744;DHT22;5929;51.906;7.674;2022-07-12T01:32:56;13.90;99.90
11744;DHT22;5929;51.906;7.674;2022-07-12T01:35:25;13.90;99.90
11744;DHT22;5929;51.906;7.674;2022-07-12T01:37:52;13.90;99.90
11744;DHT22;5929;51.906;7.674;2022-07-12T01:40:20;13.90;99.90
11744;DHT22;5929;51.906;7.674;2022-07-12T01:42:48;13.90;99.90
11744;DHT22;5929;51.906;7.674;2022-07-12T01:45:16;13.90;99.90
11744;DHT22;5929;51.906;7.674;2022-07-12T01:47:45;13.80;99.90
11744;DHT22;5929;51.906;7.674;2022-07-12T01:50:12;13.70;99.90
11744;DHT22;5929;51.906;7.674;2022-07-12T01:52:39;13.70;99.90
11744;DHT22;5929;51.906;7.674;2022-07-12T01:55:08;13.70;99.90
11744;DHT22;5929;51.906;7.674;2022-07-12T01:57:37;13.70;99.90
11744;DHT22;5929;51.906;7.674;2022-07-12T02:00:05;13.70;99.90
11744;DHT22;5929;51.906;7.674;2022-07-12T02:02:33;13.60;99.90
11744;DHT22;5929;51.906;7.674;2022-07-12T02:05:00;13.60;99.90
11744;DHT22;5929;51.906;7.674;2022-07-12T02:07:27;13.60;99.90
11744;DHT22;5929;51.906;7.674;2022-07-12T02:09:54;13.60;99.90
11744;DHT22;5929;51.906;7.674;2022-07-12T02:12:21;13.50;99.90
11744;DHT22;5929;51.906;7.674;2022-07-12T02:14:50;13.50;99.90
11744;DHT22;5929;51.906;7.674;2022-07-12T02:17:17;13.60;99.90
11744;DHT22;5929;51.906;7.674;2022-07-12T02:19:44;13.60;99.90
11744;DHT22;5929;51.906;7.674;2022-07-12T02:22:11;13.50;99.90
11744;DHT22;5929;51.906;7.674;2022-07-12T02:24:38;13.50;99.90
11744;DHT22;5929;51.906;7.674;2022-07-12T02:27:05;13.50;99.90
11744;DHT22;5929;51.906;7.674;2022-07-12T02:29:33;13.40;99.90
11744;DHT22;5929;51.906;7.674;2022-07-12T02:32:03;13.50;99.90
11744;DHT22;5929;51.906;7.674;2022-07-12T02:34:30;13.40;99.90
11744;DHT22;5929;51.906;7.674;2022-07-12T02:36:57;13.30;99.90
11744;DHT22;5929;51.906;7.674;2022-07-12T02:39:24;13.30;99.90
11744;DHT22;5929;51.906;7.674;2022-07-12T02:41:51;13.30;99.90
11744;DHT22;5929;51.906;7.674;2022-07-12T02:44:17;13.30;99.90
11744;DHT22;5929;51.906;7.674;2022-07-12T02:46:45;13.30;99.90
11744;DHT22;5929;51.906;7.674;2022-07-12T02:49:13;13.30;99.90
11744;DHT22;5929;51.906;7.674;2022-07-12T02:51:40;13.20;99.90
11744;DHT22;5929;51.906;7.674;2022-07-12T02:54:07;13.20;99.90
11744;DHT22;5929;51.906;7.674;2022-07-12T02:56:33;13.10;99.90
11744;DHT22;5929;51.906;7.674;2022-07-12T02:59:00;13.10;99.90
11744;DHT22;5929;51.906;7.674;2022-07-12T03:01:27;13.20;99.90
11744;DHT22;5929;51.906;7.674;2022-07-12T03:03:54;13.20;99.90
11744;DHT22;5929;51.906;7.674;2022-07-12T03:06:22;13.10;99.90
11744;DHT22;5929;51.906;7.674;2022-07-12T03:08:51;13.20;99.90
11744;DHT22;5929;51.906;7.674;2022-07-12T03:11:18;13.20;99.90
11744;DHT22;5929;51.906;7.674;2022-07-12T03:13:45;13.10;99.90
11744;DHT22;5929;51.906;7.674;2022-07-12T03:16:12;13.10;99.90
11744;DHT22;5929;51.906;7.674;2022-07-12T03:18:39;13.10;99.90
11744;DHT22;5929;51.906;7.674;2022-07-12T03:21:06;13.10;99.90
11744;DHT22;5929;51.906;7.674;2022-07-12T03:23:34;13.10;99.90
11744;DHT22;5929;51.906;7.674;2022-07-12T03:26:01;13.00;99.90
11744;DHT22;5929;51.906;7.674;2022-07-12T03:28:29;13.00;99.90
11744;DHT22;5929;51.906;7.674;2022-07-12T03:30:58;13.10;99.90
11744;DHT22;5929;51.906;7.674;2022-07-12T03:33:25;13.10;99.90
11744;DHT22;5929;51.906;7.674;2022-07-12T03:35:52;13.10;99.90
11744;DHT22;5929;51.906;7.674;2022-07-12T03:38:19;13.10;99.90
11744;DHT22;5929;51.906;7.674;2022-07-12T03:40:47;13.10;99.90
11744;DHT22;5929;51.906;7.674;2022-07-12T03:43:14;13.10;99.90
11744;DHT22;5929;51.906;7.674;2022-07-12T03:45:41;13.10;99.90
11744;DHT22;5929;51.906;7.674;2022-07-12T03:48:08;13.00;99.90
11744;DHT22;5929;51.906;7.674;2022-07-12T03:50:35;13.00;99.90
11744;DHT22;5929;51.906;7.674;2022-07-12T03:53:04;12.90;99.90
11744;DHT22;5929;51.906;7.674;2022-07-12T03:55:31;13.00;99.90
11744;DHT22;5929;51.906;7.674;2022-07-12T03:57:59;13.00;99.90
11744;DHT22;5929;51.906;7.674;2022-07-12T04:00:26;13.00;99.90
11744;DHT22;5929;51.906;7.674;2022-07-12T04:02:53;13.00;99.90
11744;DHT22;5929;51.906;7.674;2022-07-12T04:05:20;13.00;99.90
11744;DHT22;5929;51.906;7.674;2022-07-12T04:07:51;13.10;99.90
11744;DHT22;5929;51.906;7.674;2022-07-12T04:10:18;13.20;99.90
11744;DHT22;5929;51.906;7.674;2022-07-12T04:12:45;13.20;99.90
11744;DHT22;5929;51.906;7.674;2022-07-12T04:15:14;13.20;99.90
11744;DHT22;5929;51.906;7.674;2022-07-12T04:17:41;13.30;99.90
11744;DHT22;5929;51.906;7.674;2022-07-12T04:20:09;13.30;99.90
11744;DHT22;5929;51.906;7.674;2022-07-12T04:22:36;13.40;99.90
11744;DHT22;5929;51.906;7.674;2022-07-12T04:25:04;13.40;99.90
11744;DHT22;5929;51.906;7.674;2022-07-12T04:27:31;13.40;99.90
11744;DHT22;5929;51.906;7.674;2022-07-12T04:29:58;13.40;99.90
11744;DHT22;5929;51.906;7.674;2022-07-12T04:32:26;13.50;99.90
11744;DHT22;5929;51.906;7.674;2022-07-12T04:34:53;13.50;99.90
11744;DHT22;5929;51.906;7.674;2022-07-12T04:37:20;13.50;99.90
11744;DHT22;5929;51.906;7.674;2022-07-12T04:39:46;13.50;99.90
11744;DHT22;5929;51.906;7.674;2022-07-12T04:42:13;13.60;99.90
11744;DHT22;5929;51.906;7.674;2022-07-12T04:44:40;13.70;99.90
11744;DHT22;5929;51.906;7.674;2022-07-12T04:47:07;13.60;99.90
11744;DHT22;5929;51.906;7.674;2022-07-12T04:49:36;13.60;99.90
11744;DHT22;5929;51.906;7.674;2022-07-12T04:52:04;13.60;99.90
11744;DHT22;5929;51.906;7.674;2022-07-12T04:54:31;13.60;99.90
11744;DHT22;5929;51.906;7.674;2022-07-12T04:57:00;13.80;99.90
11744;DHT22;5929;51.906;7.674;2022-07-12T04:59:27;13.80;99.90
11744;DHT22;5929;51.906;7.674;2022-07-12T05:01:54;13.80;99.90
11744;DHT22;5929;51.906;7.674;2022-07-12T05:04:21;13.90;99.90
11744;DHT22;5929;51.906;7.674;2022-07-12T05:06:49;14.00;99.90
11744;DHT22;5929;51.906;7.674;2022-07-12T05:09:17;14.10;99.90
11744;DHT22;5929;51.906;7.674;2022-07-12T05:11:44;14.20;99.90
11744;DHT22;5929;51.906;7.674;2022-07-12T05:14:11;14.30;99.90
11744;DHT22;5929;51.906;7.674;2022-07-12T05:16:38;14.40;99.90
11744;DHT22;5929;51.906;7.674;2022-07-12T05:19:05;14.50;99.90
11744;DHT22;5929;51.906;7.674;2022-07-12T05:21:32;14.60;99.90
11744;DHT22;5929;51.906;7.674;2022-07-12T05:24:01;14.60;99.90
11744;DHT22;5929;51.906;7.674;2022-07-12T05:26:28;14.70;99.90
11744;DHT22;5929;51.906;7.674;2022-07-12T05:28:55;14.80;99.90
11744;DHT22;5929;51.906;7.674;2022-07-12T05:31:22;14.80;99.90
11744;DHT22;5929;51.906;7.674;2022-07-12T05:33:50;14.90;99.90
11744;DHT22;5929;51.906;7.674;2022-07-12T05:36:16;14.90;99.90
11744;DHT22;5929;51.906;7.674;2022-07-12T05:38:43;14.90;99.90
11744;DHT22;5929;51.906;7.674;2022-07-12T05:41:12;15.00;99.90
11744;DHT22;5929;51.906;7.674;2022-07-12T05:43:41;15.00;99.90
11744;DHT22;5929;51.906;7.674;2022-07-12T05:46:09;15.10;99.90
11744;DHT22;5929;51.906;7.674;2022-07-12T05:48:36;15.10;99.90
11744;DHT22;5929;51.906;7.674;2022-07-12T05:51:03;15.10;99.90
11744;DHT22;5929;51.906;7.674;2022-07-12T05:53:44;15.20;99.90
11744;DHT22;5929;51.906;7.674;2022-07-12T05:56:12;15.20;99.90
11744;DHT22;5929;51.906;7.674;2022-07-12T05:58:40;15.30;99.90
11744;DHT22;5929;51.906;7.674;2022-07-12T06:01:07;15.30;99.90
11744;DHT22;5929;51.906;7.674;2022-07-12T06:03:34;15.30;99.90
11744;DHT22;5929;51.906;7.674;2022-07-12T06:06:01;15.40;99.90
11744;DHT22;5929;51.906;7.674;2022-07-12T06:08:28;15.40;99.90
11744;DHT22;5929;51.906;7.674;2022-07-12T06:10:55;15.50;99.90
11744;DHT22;5929;51.906;7.674;2022-07-12T06:13:23;15.50;99.90
11744;DHT22;5929;51.906;7.674;2022-07-12T06:15:50;15.60;99.90
11744;DHT22;5929;51.906;7.674;2022-07-12T06:18:17;15.70;99.90
11744;DHT22;5929;51.906;7.674;2022-07-12T06:20:43;15.70;99.90
11744;DHT22;5929;51.906;7.674;2022-07-12T06:23:10;15.80;99.90
11744;DHT22;5929;51.906;7.674;2022-07-12T06:25:38;15.90;99.90
11744;DHT22;5929;51.906;7.674;2022-07-12T06:28:05;16.00;99.90
11744;DHT22;5929;51.906;7.674;2022-07-12T06:30:34;16.00;99.90
11744;DHT22;5929;51.906;7.674;2022-07-12T06:33:00;16.10;99.90
11744;DHT22;5929;51.906;7.674;2022-07-12T06:35:27;16.10;99.90
11744;DHT22;5929;51.906;7.674;2022-07-12T06:37:55;16.20;99.90
11744;DHT22;5929;51.906;7.674;2022-07-12T06:40:22;16.20;99.90
11744;DHT22;5929;51.906;7.674;2022-07-12T06:42:51;16.40;99.90
11744;DHT22;5929;51.906;7.674;2022-07-12T06:45:18;16.50;99.90
11744;DHT22;5929;51.906;7.674;2022-07-12T06:47:46;16.50;99.90
11744;DHT22;5929;51.906;7.674;2022-07-12T06:50:13;16.50;99.90
11744;DHT22;5929;51.906;7.674;2022-07-12T06:52:40;16.50;99.90
11744;DHT22;5929;51.906;7.674;2022-07-12T06:55:07;16.60;99.90
11744;DHT22;5929;51.906;7.674;2022-07-12T06:57:34;16.60;99.90
11744;DHT22;5929;51.906;7.674;2022-07-12T07:00:03;16.60;99.90
11744;DHT22;5929;51.906;7.674;2022-07-12T07:02:31;16.60;99.90
11744;DHT22;5929;51.906;7.674;2022-07-12T07:04:59;16.60;99.90
11744;DHT22;5929;51.906;7.674;2022-07-12T07:07:26;16.70;99.90
11744;DHT22;5929;51.906;7.674;2022-07-12T07:09:53;16.90;99.90
11744;DHT22;5929;51.906;7.674;2022-07-12T07:12:20;16.90;99.90
11744;DHT22;5929;51.906;7.674;2022-07-12T07:14:47;17.00;99.90
11744;DHT22;5929;51.906;7.674;2022-07-12T07:17:15;17.00;99.90
11744;DHT22;5929;51.906;7.674;2022-07-12T07:19:42;17.10;99.90
11744;DHT22;5929;51.906;7.674;2022-07-12T07:22:13;17.10;99.90
11744;DHT22;5929;51.906;7.674;2022-07-12T07:24:40;17.10;99.90
11744;DHT22;5929;51.906;7.674;2022-07-12T07:27:09;17.20;99.90
11744;DHT22;5929;51.906;7.674;2022-07-12T07:29:36;17.30;99.90
11744;DHT22;5929;51.906;7.674;2022-07-12T07:32:21;17.40;99.90
11744;DHT22;5929;51.906;7.674;2022-07-12T07:34:48;17.40;99.90
11744;DHT22;5929;51.906;7.674;2022-07-12T07:37:16;17.50;99.90
11744;DHT22;5929;51.906;7.674;2022-07-12T07:39:43;17.60;99.90
11744;DHT22;5929;51.906;7.674;2022-07-12T07:42:10;17.60;99.90
11744;DHT22;5929;51.906;7.674;2022-07-12T07:44:37;17.70;99.90
11744;DHT22;5929;51.906;7.674;2022-07-12T07:47:04;17.90;99.90
11744;DHT22;5929;51.906;7.674;2022-07-12T07:49:31;17.90;99.90
11744;DHT22;5929;51.906;7.674;2022-07-12T07:51:57;18.00;99.90
11744;DHT22;5929;51.906;7.674;2022-07-12T07:54:26;18.00;99.90
11744;DHT22;5929;51.906;7.674;2022-07-12T07:56:52;18.10;99.90
11744;DHT22;5929;51.906;7.674;2022-07-12T07:59:19;18.20;99.90
11744;DHT22;5929;51.906;7.674;2022-07-12T08:01:46;18.30;99.90
11744;DHT22;5929;51.906;7.674;2022-07-12T08:04:18;18.40;99.90
11744;DHT22;5929;51.906;7.674;2022-07-12T08:06:48;18.60;99.90
11744;DHT22;5929;51.906;7.674;2022-07-12T08:09:16;18.80;99.90
11744;DHT22;5929;51.906;7.674;2022-07-12T08:11:44;18.90;99.90
11744;DHT22;5929;51.906;7.674;2022-07-12T08:14:11;18.90;99.90
11744;DHT22;5929;51.906;7.674;2022-07-12T08:16:38;19.00;99.90
11744;DHT22;5929;51.906;7.674;2022-07-12T08:19:05;19.10;99.90
11744;DHT22;5929;51.906;7.674;2022-07-12T08:21:32;19.20;99.90
11744;DHT22;5929;51.906;7.674;2022-07-12T08:23:59;19.20;99.90
11744;DHT22;5929;51.906;7.674;2022-07-12T08:26:26;19.20;99.90
11744;DHT22;5929;51.906;7.674;2022-07-12T08:28:54;19.20;99.90
11744;DHT22;5929;51.906;7.674;2022-07-12T08:31:21;19.40;99.90
11744;DHT22;5929;51.906;7.674;2022-07-12T08:33:48;19.50;99.90
11744;DHT22;5929;51.906;7.674;2022-07-12T08:36:15;19.50;99.90
11744;DHT22;5929;51.906;7.674;2022-07-12T08:38:42;19.70;99.90
11744;DHT22;5929;51.906;7.674;2022-07-12T08:41:12;19.80;99.90
11744;DHT22;5929;51.906;7.674;2022-07-12T08:43:39;19.90;99.90
11744;DHT22;5929;51.906;7.674;2022-07-12T08:46:08;20.00;99.90
11744;DHT22;5929;51.906;7.674;2022-07-12T08:48:36;20.10;99.90
11744;DHT22;5929;51.906;7.674;2022-07-12T08:51:05;20.10;99.90
11744;DHT22;5929;51.906;7.674;2022-07-12T08:53:32;20.20;99.90
11744;DHT22;5929;51.906;7.674;2022-07-12T08:56:02;20.20;99.90
11744;DHT22;5929;51.906;7.674;2022-07-12T08:58:29;20.40;99.90
11744;DHT22;5929;51.906;7.674;2022-07-12T09:00:56;20.40;99.90
11744;DHT22;5929;51.906;7.674;2022-07-12T09:03:25;20.50;99.90
11744;DHT22;5929;51.906;7.674;2022-07-12T09:05:53;20.60;99.90
11744;DHT22;5929;51.906;7.674;2022-07-12T09:08:28;20.70;99.90
11744;DHT22;5929;51.906;7.674;2022-07-12T09:10:57;20.70;99.90
11744;DHT22;5929;51.906;7.674;2022-07-12T09:13:48;20.80;99.90
11744;DHT22;5929;51.906;7.674;2022-07-12T09:16:16;20.80;99.90
11744;DHT22;5929;51.906;7.674;2022-07-12T09:18:47;20.80;99.90
11744;DHT22;5929;51.906;7.674;2022-07-12T09:21:24;20.80;99.90
11744;DHT22;5929;51.906;7.674;2022-07-12T09:23:53;20.90;99.90
11744;DHT22;5929;51.906;7.674;2022-07-12T09:26:20;21.00;99.90
11744;DHT22;5929;51.906;7.674;2022-07-12T09:28:48;21.00;99.90
11744;DHT22;5929;51.906;7.674;2022-07-12T09:31:16;21.10;99.90
11744;DHT22;5929;51.906;7.674;2022-07-12T09:33:59;21.00;99.90
11744;DHT22;5929;51.906;7.674;2022-07-12T09:36:54;21.00;99.90
11744;DHT22;5929;51.906;7.674;2022-07-12T09:39:22;21.10;99.90
11744;DHT22;5929;51.906;7.674;2022-07-12T09:41:49;21.10;99.90
11744;DHT22;5929;51.906;7.674;2022-07-12T09:44:18;21.20;99.90
11744;DHT22;5929;51.906;7.674;2022-07-12T09:46:45;21.30;99.90
11744;DHT22;5929;51.906;7.674;2022-07-12T09:49:14;21.50;99.90
11744;DHT22;5929;51.906;7.674;2022-07-12T09:51:42;21.60;99.90
11744;DHT22;5929;51.906;7.674;2022-07-12T09:54:14;21.70;99.90
11744;DHT22;5929;51.906;7.674;2022-07-12T09:56:46;21.80;99.90
11744;DHT22;5929;51.906;7.674;2022-07-12T09:59:14;21.80;99.90
11744;DHT22;5929;51.906;7.674;2022-07-12T10:01:45;21.90;99.90
11744;DHT22;5929;51.906;7.674;2022-07-12T10:04:14;22.00;99.90
11744;DHT22;5929;51.906;7.674;2022-07-12T10:06:42;22.10;99.90
11744;DHT22;5929;51.906;7.674;2022-07-12T10:09:08;22.20;99.90
11744;DHT22;5929;51.906;7.674;2022-07-12T10:11:37;22.20;99.90
11744;DHT22;5929;51.906;7.674;2022-07-12T10:14:05;22.30;99.90
11744;DHT22;5929;51.906;7.674;2022-07-12T10:16:34;22.40;99.70
11744;DHT22;5929;51.906;7.674;2022-07-12T10:19:24;22.40;99.90
11744;DHT22;5929;51.906;7.674;2022-07-12T10:21:52;22.40;99.10
11744;DHT22;5929;51.906;7.674;2022-07-12T10:27:32;22.60;98.30
11744;DHT22;5929;51.906;7.674;2022-07-12T10:32:50;23.10;97.70
11744;DHT22;5929;51.906;7.674;2022-07-12T10:35:21;23.20;96.90
11744;DHT22;5929;51.906;7.674;2022-07-12T10:38:14;23.40;95.50
11744;DHT22;5929;51.906;7.674;2022-07-12T10:40:42;23.40;95.40
11744;DHT22;5929;51.906;7.674;2022-07-12T10:43:18;23.50;94.60
11744;DHT22;5929;51.906;7.674;2022-07-12T10:45:47;23.60;94.70
11744;DHT22;5929;51.906;7.674;2022-07-12T10:48:22;23.80;93.80
11744;DHT22;5929;51.906;7.674;2022-07-12T10:50:55;23.90;94.50
11744;DHT22;5929;51.906;7.674;2022-07-12T10:53:29;24.20;94.80
11744;DHT22;5929;51.906;7.674;2022-07-12T10:56:10;24.50;93.90
11744;DHT22;5929;51.906;7.674;2022-07-12T10:58:38;24.80;92.80
11744;DHT22;5929;51.906;7.674;2022-07-12T11:01:09;24.70;91.70
11744;DHT22;5929;51.906;7.674;2022-07-12T11:03:41;24.70;91.80
11744;DHT22;5929;51.906;7.674;2022-07-12T11:06:11;25.00;91.10
11744;DHT22;5929;51.906;7.674;2022-07-12T11:08:55;25.30;90.20
11744;DHT22;5929;51.906;7.674;2022-07-12T11:11:24;25.40;89.60
11744;DHT22;5929;51.906;7.674;2022-07-12T11:13:51;25.50;86.50
11744;DHT22;5929;51.906;7.674;2022-07-12T11:16:18;25.60;86.20
11744;DHT22;5929;51.906;7.674;2022-07-12T11:18:47;25.70;83.80
11744;DHT22;5929;51.906;7.674;2022-07-12T11:21:16;25.70;85.00
11744;DHT22;5929;51.906;7.674;2022-07-12T11:23:45;25.80;85.20
11744;DHT22;5929;51.906;7.674;2022-07-12T11:26:12;26.00;84.10
11744;DHT22;5929;51.906;7.674;2022-07-12T11:28:41;26.30;82.00
11744;DHT22;5929;51.906;7.674;2022-07-12T11:31:09;26.80;81.50
11744;DHT22;5929;51.906;7.674;2022-07-12T11:33:40;27.40;82.40
11744;DHT22;5929;51.906;7.674;2022-07-12T11:36:12;28.10;80.80
11744;DHT22;5929;51.906;7.674;2022-07-12T11:38:42;28.60;78.50
11744;DHT22;5929;51.906;7.674;2022-07-12T11:41:10;28.80;77.00
11744;DHT22;5929;51.906;7.674;2022-07-12T11:43:38;28.80;74.40
11744;DHT22;5929;51.906;7.674;2022-07-12T11:46:06;28.80;75.00
11744;DHT22;5929;51.906;7.674;2022-07-12T11:48:35;29.00;74.40
11744;DHT22;5929;51.906;7.674;2022-07-12T11:51:04;29.40;73.60
11744;DHT22;5929;51.906;7.674;2022-07-12T11:53:35;29.50;72.40
11744;DHT22;5929;51.906;7.674;2022-07-12T11:56:05;30.00;68.70
11744;DHT22;5929;51.906;7.674;2022-07-12T11:58:33;30.30;67.40
11744;DHT22;5929;51.906;7.674;2022-07-12T12:01:03;30.30;67.60
11744;DHT22;5929;51.906;7.674;2022-07-12T12:03:41;30.60;68.00
11744;DHT22;5929;51.906;7.674;2022-07-12T12:06:08;30.80;66.40
11744;DHT22;5929;51.906;7.674;2022-07-12T12:08:35;30.60;66.30
11744;DHT22;5929;51.906;7.674;2022-07-12T12:11:02;30.30;64.20
11744;DHT22;5929;51.906;7.674;2022-07-12T12:13:30;30.60;63.60
11744;DHT22;5929;51.906;7.674;2022-07-12T12:16:00;30.60;62.40
11744;DHT22;5929;51.906;7.674;2022-07-12T12:18:31;30.80;62.70
11744;DHT22;5929;51.906;7.674;2022-07-12T12:21:00;31.10;62.10
11744;DHT22;5929;51.906;7.674;2022-07-12T12:23:28;31.20;62.00
11744;DHT22;5929;51.906;7.674;2022-07-12T12:26:11;31.40;61.70
11744;DHT22;5929;51.906;7.674;2022-07-12T12:28:44;31.40;60.20
11744;DHT22;5929;51.906;7.674;2022-07-12T12:31:12;31.50;59.70
11744;DHT22;5929;51.906;7.674;2022-07-12T12:33:40;31.60;57.30
11744;DHT22;5929;51.906;7.674;2022-07-12T12:36:12;31.40;56.90
11744;DHT22;5929;51.906;7.674;2022-07-12T12:38:39;31.60;57.00
11744;DHT22;5929;51.906;7.674;2022-07-12T12:41:11;31.80;55.20
11744;DHT22;5929;51.906;7.674;2022-07-12T12:43:41;31.70;55.00
11744;DHT22;5929;51.906;7.674;2022-07-12T12:46:09;32.10;54.60
11744;DHT22;5929;51.906;7.674;2022-07-12T12:48:46;32.30;55.10
11744;DHT22;5929;51.906;7.674;2022-07-12T12:51:13;32.10;55.70
11744;DHT22;5929;51.906;7.674;2022-07-12T12:53:42;31.40;55.30
11744;DHT22;5929;51.906;7.674;2022-07-12T12:56:10;31.00;57.00
11744;DHT22;5929;51.906;7.674;2022-07-12T12:58:40;30.70;58.10
11744;DHT22;5929;51.906;7.674;2022-07-12T13:01:11;31.10;55.80
11744;DHT22;5929;51.906;7.674;2022-07-12T13:03:38;31.20;52.70
11744;DHT22;5929;51.906;7.674;2022-07-12T13:06:05;31.10;54.00
11744;DHT22;5929;51.906;7.674;2022-07-12T13:08:32;31.40;54.20
11744;DHT22;5929;51.906;7.674;2022-07-12T13:10:59;31.50;54.00
11744;DHT22;5929;51.906;7.674;2022-07-12T13:13:44;31.20;53.70
11744;DHT22;5929;51.906;7.674;2022-07-12T13:16:12;31.80;52.20
11744;DHT22;5929;51.906;7.674;2022-07-12T13:18:41;32.20;51.20
11744;DHT22;5929;51.906;7.674;2022-07-12T13:21:10;32.00;50.80
11744;DHT22;5929;51.906;7.674;2022-07-12T13:23:37;31.80;53.00
11744;DHT22;5929;51.906;7.674;2022-07-12T13:26:06;31.90;55.20
11744;DHT22;5929;51.906;7.674;2022-07-12T13:28:33;32.20;53.00
11744;DHT22;5929;51.906;7.674;2022-07-12T13:31:02;32.50;53.90
11744;DHT22;5929;51.906;7.674;2022-07-12T13:33:30;32.80;53.80
11744;DHT22;5929;51.906;7.674;2022-07-12T13:35:57;32.80;54.20
11744;DHT22;5929;51.906;7.674;2022-07-12T13:38:24;32.80;53.20
11744;DHT22;5929;51.906;7.674;2022-07-12T13:40:51;32.90;53.30
11744;DHT22;5929;51.906;7.674;2022-07-12T13:43:19;32.60;53.70
11744;DHT22;5929;51.906;7.674;2022-07-12T13:45:46;32.70;52.80
11744;DHT22;5929;51.906;7.674;2022-07-12T13:48:18;32.00;53.80
11744;DHT22;5929;51.906;7.674;2022-07-12T13:50:46;31.10;55.90
11744;DHT22;5929;51.906;7.674;2022-07-12T13:53:14;31.00;57.80
11744;DHT22;5929;51.906;7.674;2022-07-12T13:55:42;31.30;54.80
11744;DHT22;5929;51.906;7.674;2022-07-12T13:58:09;31.70;54.50
11744;DHT22;5929;51.906;7.674;2022-07-12T14:00:36;32.10;53.60
11744;DHT22;5929;51.906;7.674;2022-07-12T14:03:05;32.40;54.50
11744;DHT22;5929;51.906;7.674;2022-07-12T14:05:32;32.30;52.70
11744;DHT22;5929;51.906;7.674;2022-07-12T14:08:03;32.80;50.80
11744;DHT22;5929;51.906;7.674;2022-07-12T14:10:30;32.30;50.20
11744;DHT22;5929;51.906;7.674;2022-07-12T14:12:59;32.10;50.90
11744;DHT22;5929;51.906;7.674;2022-07-12T14:15:26;31.80;50.70
11744;DHT22;5929;51.906;7.674;2022-07-12T14:18:07;31.80;51.50
11744;DHT22;5929;51.906;7.674;2022-07-12T14:20:35;31.40;50.10
11744;DHT22;5929;51.906;7.674;2022-07-12T14:23:04;31.00;52.50
11744;DHT22;5929;51.906;7.674;2022-07-12T14:25:31;30.80;53.60
11744;DHT22;5929;51.906;7.674;2022-07-12T14:27:58;30.70;52.30
11744;DHT22;5929;51.906;7.674;2022-07-12T14:30:25;30.80;52.60
11744;DHT22;5929;51.906;7.674;2022-07-12T14:32:52;31.00;52.00
11744;DHT22;5929;51.906;7.674;2022-07-12T14:35:19;31.70;52.10
11744;DHT22;5929;51.906;7.674;2022-07-12T14:37:46;32.00;51.20
11744;DHT22;5929;51.906;7.674;2022-07-12T14:40:17;32.20;50.50
11744;DHT22;5929;51.906;7.674;2022-07-12T14:42:43;32.10;49.10
11744;DHT22;5929;51.906;7.674;2022-07-12T14:45:10;32.10;49.70
11744;DHT22;5929;51.906;7.674;2022-07-12T14:47:37;32.20;50.30
11744;DHT22;5929;51.906;7.674;2022-07-12T14:50:05;32.70;50.60
11744;DHT22;5929;51.906;7.674;2022-07-12T14:52:33;32.50;49.10
11744;DHT22;5929;51.906;7.674;2022-07-12T14:55:00;32.40;48.40
11744;DHT22;5929;51.906;7.674;2022-07-12T14:57:29;32.30;49.30
11744;DHT22;5929;51.906;7.674;2022-07-12T14:59:56;32.00;50.30
11744;DHT22;5929;51.906;7.674;2022-07-12T15:02:23;32.10;48.40
11744;DHT22;5929;51.906;7.674;2022-07-12T15:04:50;31.90;48.10
11744;DHT22;5929;51.906;7.674;2022-07-12T15:07:17;31.40;50.40
11744;DHT22;5929;51.906;7.674;2022-07-12T15:09:44;31.30;50.20
11744;DHT22;5929;51.906;7.674;2022-07-12T15:12:12;31.30;50.00
11744;DHT22;5929;51.906;7.674;2022-07-12T15:14:40;31.40;49.80
11744;DHT22;5929;51.906;7.674;2022-07-12T15:17:08;31.20;50.60
11744;DHT22;5929;51.906;7.674;2022-07-12T15:19:34;31.20;51.00
11744;DHT22;5929;51.906;7.674;2022-07-12T15:22:01;31.20;50.60
11744;DHT22;5929;51.906;7.674;2022-07-12T15:24:28;31.00;50.50
11744;DHT22;5929;51.906;7.674;2022-07-12T15:26:57;31.00;51.30
11744;DHT22;5929;51.906;7.674;2022-07-12T15:29:24;30.90;50.30
11744;DHT22;5929;51.906;7.674;2022-07-12T15:31:52;30.80;52.10
11744;DHT22;5929;51.906;7.674;2022-07-12T15:34:19;30.60;53.80
11744;DHT22;5929;51.906;7.674;2022-07-12T15:36:46;30.60;51.40
11744;DHT22;5929;51.906;7.674;2022-07-12T15:39:13;30.70;52.10
11744;DHT22;5929;51.906;7.674;2022-07-12T15:41:40;30.90;51.20
11744;DHT22;5929;51.906;7.674;2022-07-12T15:44:07;31.00;52.10
11744;DHT22;5929;51.906;7.674;2022-07-12T15:46:35;30.90;51.30
11744;DHT22;5929;51.906;7.674;2022-07-12T15:49:03;31.20;50.70
11744;DHT22;5929;51.906;7.674;2022-07-12T15:51:30;31.00;51.80
11744;DHT22;5929;51.906;7.674;2022-07-12T15:54:15;30.80;52.40
11744;DHT22;5929;51.906;7.674;2022-07-12T15:56:42;30.70;52.10
11744;DHT22;5929;51.906;7.674;2022-07-12T15:59:09;30.50;53.70